Portada
METAR-TAF:

METAR-TAF

Aeropuertos :

Ramsar, Irán

latitud: 36-54N, longitud: 050-40E, altitud: -23 m

Observación

El informe se hizo hace 3 horas y 50 minutos, a las 21:00 UTC
Viento calma
Temperatura 8°C
Humedad 100%
Presión 1015 hPa
Visibilidad: 6000 m
Cielo nuboso a una altura de 1300 ft
Escasas nubes a una altura de 2000 ft, Cumulonimbus.
Cielo cubierto a una altura de 8000 ft

METAR: OINR 202100Z 00000KT 6000 BKN013 FEW020CB OVC080 08/08 Q1015

Hora: 04:20 (00:50 UTC)


TAF: falta

Observaciones y pronósticos meteorológicos de más de 4000 aeropuertos (mensajes METAR y TAF).

Los puntos amarillos y rojos representan las estaciones disponibles.

Ponga el ratón en el punto deseado para ver el nombre de la estación.

Haga clic para ver las observaciones y los pronósticos meteorológicos.

Para cambiar el mapa : haga clic en los botones verdes con una cruz de color negro para hacer un zoom, en el botón verde con un guión para alejar o en las flechas verdes para mapas adyacentes.


METAR-TAF: